KPGA

Page Municipal Airport

Page, Arizona, USA
METAR KPGA 221653Z AUTO 18011G17KT 10SM CLR 24/M05 A2989 RMK AO2 SLP057 T02441050 TSNO
Observed Flight Rules
May-22 @ 16:53 UTC (52 minutes ago) Visual Flight Rules
Wind Visibility Clouds
180° at 11 knots
 Gusting to 17 knots
10 miles
  • Clear skies
Temperatures Readings
Current 24°C / 75°F
Dewpoint -5°C / 23°F
Humidity 14%
Altimeter 29.89" Hg
Pressure 1005.7 hPa
Elevation 1307
METAR KPGA 221653Z AUTO 18011G17KT 10SM CLR 24/M05 A2989 RMK AO2 SLP057 T02441050 TSNO
Observed Flight Rules
May-22 @ 16:53 UTC
(52 minutes ago)
VFR
Wind Visibility
180° at 11 knots
 Gusting to 17 knots
10 miles
Clouds
  • Clear skies
Temperature Dewpoint
24°C / 75°F -5°C / 23°F
Humidity Altimeter Pressure
14% 29.89" Hg 1005.7 hPa